Rechercher aéroport 
image banner adimage banner adimage banner ad
image banner ad

8G2 - Corry-Lawrence

Situé à Corry, United States

ICAO - 8G2, IATA -

Données fournies par Airmate  

Information générale

Coordonnées: N41°54'27" W79°38'28"
Élévation : 1766 feet MSL.
Variation magnétique : -10° East
Voir autres Aéroports à Pennsylvania

Données opérationnelles

Special qualification required
Heure actuelle UTC:
Heure actuelle locale:
Météo à : KJHW - Chautauqua County/Jamestown ( 42 km )
METAR: KJHW 131856Z AUTO 02008KT 340V070 10SM OVC040 25/18 A2988 RMK AO2 SLP114 T02500183
TAF: KJHW 131732Z 1318/1418 VRB04KT P6SM BKN040 FM132000 31010KT P6SM SCT060 FM140000 VRB04KT P6SM SCT250 FM141400 30008KT P6SM VCSH BKN050 FM141500 31009KT 6SM BR VCSH OVC040
Voir NOTAMs / SUP AIP / TFR affectant cet aéroport [VIEW]
Fréquences de communication: [VIEW]

Pistes:

Identifiant RWYQFULongueur (ft)Largeur (ft)SurfaceLDA (ft)
14133°410175ASPH
32313°410175ASPH

Coordonnées de l'aéroport

Adresse: Corry United States

Vue satellite de 8G2